Time;durP1;ratioP1;P1;durP2;ratioP2;P2;SDS_P1;SDS_P2;PMS_P1;PMS_P2;Temp;Humidity;BMP_temperature;BMP_pressure;BME280_temperature;BME280_humidity;BME280_pressure;Samples;Min_cycle;Max_cycle;Signal;HPM_P1;HPM_P2
2021/11/09 00:01:04;;;;;;;56.53;22.55;;;8.50;99.90;;;;;;4996884;28;20508;-73
2021/11/09 00:03:35;;;;;;;57.80;21.90;;;8.60;99.90;;;;;;5008335;28;20126;-73
2021/11/09 00:06:25;;;;;;;56.67;21.63;;;8.60;99.90;;;;;;4976199;28;20421;-73
2021/11/09 00:08:57;;;;;;;53.67;22.63;;;8.60;99.90;;;;;;5008768;28;20049;-73
2021/11/09 00:11:26;;;;;;;62.28;23.58;;;8.60;99.90;;;;;;5007059;28;20261;-73
2021/11/09 00:13:53;;;;;;;63.47;23.90;;;8.60;99.90;;;;;;5008728;28;20049;-73
2021/11/09 00:16:20;;;;;;;57.47;22.33;;;8.50;99.90;;;;;;5025987;28;20037;-73
2021/11/09 00:18:48;;;;;;;68.18;21.73;;;8.50;99.90;;;;;;5026639;28;20139;-73
2021/11/09 00:21:17;;;;;;;58.92;23.63;;;8.50;99.90;;;;;;5024743;28;20115;-73
2021/11/09 00:23:46;;;;;;;56.22;23.60;;;8.50;99.90;;;;;;4993106;28;20134;-73
2021/11/09 00:26:14;;;;;;;53.15;22.23;;;8.40;99.90;;;;;;5009238;28;20049;-73
2021/11/09 00:28:41;;;;;;;47.72;21.02;;;8.40;99.90;;;;;;5026441;28;20045;-73
2021/11/09 00:31:08;;;;;;;64.15;24.17;;;8.30;99.90;;;;;;5024952;28;20132;-73
2021/11/09 00:33:35;;;;;;;59.80;21.25;;;8.40;99.90;;;;;;5009057;28;20444;-73
2021/11/09 00:36:03;;;;;;;58.95;22.33;;;8.40;99.90;;;;;;5007990;28;20041;-73
2021/11/09 00:38:31;;;;;;;55.80;23.23;;;8.50;99.90;;;;;;5010822;28;20045;-73
2021/11/09 00:40:58;;;;;;;57.60;21.70;;;8.40;99.90;;;;;;5023198;28;20046;-73
2021/11/09 00:43:25;;;;;;;59.70;20.33;;;8.40;99.90;;;;;;5008142;28;20112;-73
2021/11/09 00:45:52;;;;;;;49.20;21.48;;;8.40;99.90;;;;;;5007067;28;20565;-73
2021/11/09 00:48:20;;;;;;;68.88;21.90;;;8.50;99.90;;;;;;5007510;28;20387;-73
2021/11/09 00:50:48;;;;;;;60.53;20.88;;;8.40;99.90;;;;;;5008427;28;20046;-73
2021/11/09 00:53:17;;;;;;;60.92;22.45;;;8.40;99.90;;;;;;5026398;28;20367;-73
2021/11/09 00:55:46;;;;;;;53.30;21.73;;;8.40;99.90;;;;;;5008444;28;20049;-73
2021/11/09 00:58:13;;;;;;;50.63;23.33;;;8.30;99.90;;;;;;5040697;28;20057;-73
2021/11/09 01:00:41;;;;;;;57.47;24.38;;;8.40;99.90;;;;;;5024545;28;20054;-74
2021/11/09 01:03:09;;;;;;;59.78;23.85;;;8.40;99.90;;;;;;5007703;28;20473;-73
2021/11/09 01:05:37;;;;;;;48.63;23.95;;;8.40;99.90;;;;;;4989809;28;20054;-74
2021/11/09 01:08:07;;;;;;;53.80;22.77;;;8.40;99.90;;;;;;5008461;28;20053;-73
2021/11/09 01:10:37;;;;;;;54.45;23.83;;;8.30;99.90;;;;;;5008828;28;20148;-74
2021/11/09 01:13:05;;;;;;;74.93;24.77;;;8.20;99.90;;;;;;4991123;28;20118;-73
2021/11/09 01:15:36;;;;;;;52.40;23.15;;;8.20;99.90;;;;;;5006708;28;20100;-73
2021/11/09 01:18:04;;;;;;;62.65;23.33;;;8.20;99.90;;;;;;5008221;28;20084;-74
2021/11/09 01:20:33;;;;;;;61.08;23.67;;;8.30;99.90;;;;;;5025217;28;20392;-73
2021/11/09 01:23:03;;;;;;;47.63;22.95;;;8.10;99.90;;;;;;5007921;28;20111;-73
2021/11/09 01:25:30;;;;;;;65.72;24.25;;;8.00;99.90;;;;;;5020688;28;20421;-73
2021/11/09 01:27:57;;;;;;;62.63;24.35;;;8.00;99.90;;;;;;4971766;28;20073;-73
2021/11/09 01:30:25;;;;;;;52.92;23.75;;;8.00;99.90;;;;;;5006352;28;20045;-73
2021/11/09 01:32:52;;;;;;;64.85;25.15;;;8.20;99.90;;;;;;4975553;28;20239;-73
2021/11/09 01:35:21;;;;;;;63.10;25.33;;;8.20;99.90;;;;;;5006458;28;20053;-73
2021/11/09 01:37:49;;;;;;;64.63;24.77;;;8.30;99.90;;;;;;5006144;28;20115;-73
2021/11/09 01:40:17;;;;;;;59.72;25.45;;;8.30;99.90;;;;;;5003654;28;20049;-73
2021/11/09 01:42:44;;;;;;;60.05;24.60;;;8.20;99.90;;;;;;5007346;28;20482;-73
2021/11/09 01:45:12;;;;;;;63.20;25.73;;;8.10;99.90;;;;;;4990909;28;20053;-73
2021/11/09 01:47:41;;;;;;;69.03;25.33;;;8.00;99.90;;;;;;5007463;28;20061;-73
2021/11/09 01:50:11;;;;;;;67.65;24.20;;;8.00;99.90;;;;;;5024163;28;20089;-72
2021/11/09 01:52:38;;;;;;;75.65;25.92;;;8.00;99.90;;;;;;4990629;28;20045;-73
2021/11/09 01:55:08;;;;;;;57.85;22.55;;;7.90;99.90;;;;;;4991025;28;20045;-73
2021/11/09 01:57:35;;;;;;;52.15;21.00;;;7.80;99.90;;;;;;5035798;28;20060;-73
2021/11/09 02:00:08;;;;;;;61.55;23.83;;;7.60;99.90;;;;;;4993717;28;20060;-73
2021/11/09 02:02:41;;;;;;;57.13;24.65;;;7.50;99.90;;;;;;5016741;28;20132;-73
2021/11/09 02:05:10;;;;;;;61.25;25.95;;;7.60;99.90;;;;;;5006887;28;20057;-73
2021/11/09 02:07:45;;;;;;;54.95;24.13;;;7.60;99.90;;;;;;4997303;28;20495;-73
2021/11/09 02:10:14;;;;;;;50.58;23.75;;;7.70;99.90;;;;;;4987061;28;20057;-73
2021/11/09 02:12:41;;;;;;;64.03;25.45;;;7.70;99.90;;;;;;5025028;28;20049;-73
2021/11/09 02:15:09;;;;;;;63.95;26.98;;;7.70;99.90;;;;;;5005589;28;20053;-73
2021/11/09 02:17:37;;;;;;;65.82;25.40;;;7.80;99.90;;;;;;5008361;28;20065;-73
2021/11/09 02:20:05;;;;;;;62.83;25.13;;;7.90;99.90;;;;;;4974375;28;20459;-73
2021/11/09 02:22:34;;;;;;;67.53;25.75;;;7.90;99.90;;;;;;5024140;28;20115;-73
2021/11/09 02:25:04;;;;;;;69.22;27.67;;;7.90;99.90;;;;;;5006991;28;20119;-73
2021/11/09 02:27:31;;;;;;;75.45;27.63;;;8.00;99.90;;;;;;5022495;28;20523;-73
2021/11/09 02:29:58;;;;;;;72.07;26.25;;;8.00;99.90;;;;;;5004887;28;20041;-73
2021/11/09 02:32:25;;;;;;;71.05;26.70;;;8.00;99.90;;;;;;5023129;28;20053;-73
2021/11/09 02:34:52;;;;;;;69.63;25.85;;;8.00;99.90;;;;;;5007257;28;20187;-73
2021/11/09 02:37:19;;;;;;;72.95;26.30;;;8.00;99.90;;;;;;5006555;28;20049;-73
2021/11/09 02:39:46;;;;;;;55.22;24.00;;;7.90;99.90;;;;;;4988523;28;20482;-73
2021/11/09 02:42:16;;;;;;;59.53;24.58;;;7.80;99.90;;;;;;5002974;28;20108;-73
2021/11/09 02:44:53;;;;;;;54.90;25.98;;;7.80;99.90;;;;;;4989159;28;20049;-73
2021/11/09 02:47:22;;;;;;;65.93;26.25;;;7.90;99.90;;;;;;5006198;28;20246;-73
2021/11/09 02:49:59;;;;;;;58.63;24.45;;;7.90;99.90;;;;;;5006804;28;20057;-73
2021/11/09 02:52:28;;;;;;;52.17;22.73;;;7.90;99.90;;;;;;5023373;28;20189;-73
2021/11/09 02:55:03;;;;;;;51.47;22.75;;;7.80;99.90;;;;;;5006547;28;20508;-73
2021/11/09 03:00:28;;;;;;;52.50;23.42;;;7.90;99.90;;;;;;5003319;28;20037;-73
2021/11/09 03:08:09;;;;;;;53.97;23.10;;;7.90;99.90;;;;;;5026301;28;20065;-73
2021/11/09 03:10:39;;;;;;;53.80;24.35;;;7.90;99.90;;;;;;4990612;28;20116;-73
2021/11/09 03:13:06;;;;;;;52.65;22.27;;;7.90;99.90;;;;;;5011047;28;20080;-73
2021/11/09 03:15:34;;;;;;;48.15;22.55;;;7.90;99.90;;;;;;4977106;28;20038;-73
2021/11/09 03:18:07;;;;;;;48.45;21.95;;;7.90;99.90;;;;;;5009836;28;20042;-73
2021/11/09 03:45:32;;;;;;;64.00;26.08;;;8.10;99.90;;;;;;5007820;28;20071;-73
2021/11/09 03:48:09;;;;;;;64.63;25.83;;;8.10;99.90;;;;;;5024933;28;20068;-73
2021/11/09 03:50:39;;;;;;;56.42;25.67;;;8.10;99.90;;;;;;4992713;28;20100;-73
2021/11/09 03:53:16;;;;;;;65.97;26.27;;;8.10;99.90;;;;;;5026496;28;20115;-73
2021/11/09 03:58:23;;;;;;;56.95;24.65;;;8.00;99.90;;;;;;4989646;28;20053;-74
2021/11/09 04:05:56;;;;;;;50.97;24.63;;;8.00;99.90;;;;;;5027012;28;20053;-73
2021/11/09 04:21:57;;;;;;;74.47;27.80;;;7.90;99.90;;;;;;5028524;28;20111;-73
2021/11/09 04:38:42;;;;;;;72.40;28.60;;;7.80;99.90;;;;;;5007418;28;20049;-74
2021/11/09 05:10:02;;;;;;;67.10;28.45;;;7.80;99.90;;;;;;5007261;28;20049;-74
2021/11/09 05:12:29;;;;;;;68.40;27.02;;;7.80;99.90;;;;;;5023241;28;20118;-73
2021/11/09 05:14:56;;;;;;;71.85;28.15;;;7.70;99.90;;;;;;4991107;28;20091;-73
2021/11/09 05:17:23;;;;;;;69.43;29.00;;;7.70;99.90;;;;;;5025580;28;20057;-74
2021/11/09 05:19:49;;;;;;;78.30;29.02;;;7.70;99.90;;;;;;4991875;28;20464;-73
2021/11/09 05:22:16;;;;;;;82.43;29.80;;;7.60;99.90;;;;;;5007204;28;20345;-73
2021/11/09 05:24:43;;;;;;;88.78;30.83;;;7.70;99.90;;;;;;5007110;28;20547;-73
2021/11/09 05:27:15;;;;;;;83.50;30.20;;;7.50;99.90;;;;;;4990725;28;20276;-73
2021/11/09 05:29:44;;;;;;;72.40;29.85;;;7.60;99.90;;;;;;5006347;28;20045;-73
2021/11/09 05:32:11;;;;;;;71.75;32.15;;;7.60;99.90;;;;;;4989730;28;20057;-73
2021/11/09 05:34:38;;;;;;;78.78;31.15;;;7.40;99.90;;;;;;4988656;28;20515;-73
2021/11/09 05:37:09;;;;;;;75.35;30.88;;;7.40;99.90;;;;;;5007720;28;20112;-74
2021/11/09 05:39:44;;;;;;;83.97;32.60;;;7.30;99.90;;;;;;5009053;28;20092;-73
2021/11/09 05:42:13;;;;;;;83.65;32.60;;;7.20;99.90;;;;;;5006873;28;20431;-73
2021/11/09 05:44:41;;;;;;;82.30;30.08;;;7.10;99.90;;;;;;4991272;28;20068;-73
2021/11/09 05:47:08;;;;;;;91.63;30.70;;;7.10;99.90;;;;;;5005765;28;20506;-73
2021/11/09 05:49:34;;;;;;;85.65;31.40;;;7.00;99.90;;;;;;5025048;28;20053;-73
2021/11/09 05:52:02;;;;;;;75.55;30.63;;;7.00;99.90;;;;;;5025165;28;20365;-73
2021/11/09 05:54:29;;;;;;;84.85;28.60;;;6.90;99.90;;;;;;5024175;28;20075;-73
2021/11/09 05:56:56;;;;;;;80.05;33.08;;;6.80;99.90;;;;;;5029683;28;20219;-74
2021/11/09 05:59:23;;;;;;;74.85;31.17;;;6.90;99.90;;;;;;5005770;28;20092;-73
2021/11/09 06:01:50;;;;;;;77.75;31.85;;;6.90;99.90;;;;;;5004922;28;20049;-73
2021/11/09 06:04:17;;;;;;;76.10;31.40;;;6.90;99.90;;;;;;5006186;28;20107;-73
2021/11/09 06:06:43;;;;;;;71.72;30.55;;;6.90;99.90;;;;;;5000644;28;20069;-73
2021/11/09 06:09:10;;;;;;;70.70;30.10;;;6.80;99.90;;;;;;5026164;28;20053;-73
2021/11/09 06:11:37;;;;;;;78.68;32.80;;;6.60;99.90;;;;;;5005851;28;20181;-73
2021/11/09 06:14:06;;;;;;;93.60;33.13;;;6.60;99.90;;;;;;5002835;28;20112;-73
2021/11/09 06:16:32;;;;;;;77.65;31.55;;;6.70;99.90;;;;;;5043156;28;20106;-73
2021/11/09 06:18:59;;;;;;;82.53;31.83;;;6.70;99.90;;;;;;5025916;28;20510;-73
2021/11/09 06:21:26;;;;;;;76.93;32.15;;;6.70;99.90;;;;;;5009107;28;20045;-73
2021/11/09 06:23:53;;;;;;;92.40;33.05;;;6.70;99.90;;;;;;5009517;28;20056;-73
2021/11/09 06:26:23;;;;;;;83.45;33.75;;;6.70;99.90;;;;;;5030811;28;20121;-73
2021/11/09 06:28:55;;;;;;;83.22;33.53;;;6.60;99.90;;;;;;5004578;28;20075;-73
2021/11/09 06:31:23;;;;;;;77.18;32.45;;;6.60;99.90;;;;;;5022541;28;20123;-73
2021/11/09 06:33:50;;;;;;;72.47;31.88;;;6.50;99.90;;;;;;4989446;28;20389;-73
2021/11/09 06:36:17;;;;;;;79.90;31.70;;;6.50;99.90;;;;;;5005515;28;20121;-73
2021/11/09 06:38:45;;;;;;;78.00;31.25;;;6.40;99.90;;;;;;5005906;28;20103;-73
2021/11/09 06:41:12;;;;;;;89.93;31.70;;;6.30;99.90;;;;;;5003042;28;20045;-73
2021/11/09 06:43:39;;;;;;;90.75;32.25;;;6.20;99.90;;;;;;5004861;28;20057;-73
2021/11/09 06:46:06;;;;;;;88.15;32.20;;;6.00;99.90;;;;;;5022364;28;20053;-73
2021/11/09 06:48:33;;;;;;;82.15;30.88;;;5.90;99.90;;;;;;5023648;28;20085;-73
2021/11/09 06:51:00;;;;;;;76.13;29.48;;;5.90;99.90;;;;;;5005230;28;20049;-73
2021/11/09 06:53:28;;;;;;;71.50;27.67;;;5.80;99.90;;;;;;5005564;28;20103;-73
2021/11/09 06:55:56;;;;;;;71.30;27.60;;;5.80;99.90;;;;;;4993388;28;20111;-73
2021/11/09 06:58:22;;;;;;;78.45;29.52;;;5.80;99.90;;;;;;5023086;28;20058;-73
2021/11/09 07:00:49;;;;;;;115.30;48.50;;;5.80;99.90;;;;;;5021723;28;20081;-73
2021/11/09 07:03:16;;;;;;;87.57;36.75;;;5.70;99.90;;;;;;5003599;28;20049;-73
2021/11/09 07:05:43;;;;;;;69.65;30.00;;;5.80;99.90;;;;;;5005678;28;20129;-75
2021/11/09 07:08:10;;;;;;;83.60;31.20;;;5.70;99.90;;;;;;5023929;28;20138;-73
2021/11/09 07:10:37;;;;;;;78.88;31.77;;;5.60;99.90;;;;;;5021558;28;20076;-73
2021/11/09 07:13:04;;;;;;;78.40;29.67;;;5.70;99.90;;;;;;5005428;28;20057;-73
2021/11/09 07:15:31;;;;;;;86.65;29.55;;;5.60;99.90;;;;;;5011987;28;20119;-75
2021/11/09 07:17:58;;;;;;;79.47;29.98;;;5.60;99.90;;;;;;5005410;28;20535;-75
2021/11/09 07:20:25;;;;;;;85.95;30.77;;;5.50;99.90;;;;;;5005601;28;20100;-73
2021/11/09 07:22:51;;;;;;;72.18;30.65;;;5.40;99.90;;;;;;5023413;28;20129;-73
2021/11/09 07:25:18;;;;;;;92.22;31.05;;;5.50;99.90;;;;;;5023871;28;20133;-73
2021/11/09 07:27:46;;;;;;;76.03;29.35;;;5.60;99.90;;;;;;5006587;28;20134;-74
2021/11/09 07:30:14;;;;;;;95.68;31.88;;;5.70;99.90;;;;;;4987861;28;20049;-73
2021/11/09 07:32:41;;;;;;;95.78;35.33;;;5.70;99.90;;;;;;5023973;28;20115;-73
2021/11/09 07:35:09;;;;;;;83.78;32.22;;;5.80;99.90;;;;;;5003671;28;20480;-73
2021/11/09 07:37:36;;;;;;;86.82;33.13;;;5.80;99.90;;;;;;5023620;28;20053;-73
2021/11/09 07:40:05;;;;;;;83.25;31.20;;;5.80;99.90;;;;;;5004954;28;20049;-73
2021/11/09 07:42:32;;;;;;;81.63;30.13;;;5.80;99.90;;;;;;5021548;28;20575;-73
2021/11/09 07:44:59;;;;;;;84.47;30.92;;;5.70;99.90;;;;;;5023466;28;20058;-73
2021/11/09 07:47:26;;;;;;;74.78;32.08;;;5.70;99.90;;;;;;5023171;28;20330;-73
2021/11/09 07:49:53;;;;;;;82.53;30.80;;;5.70;99.90;;;;;;5023415;28;20576;-73
2021/11/09 07:52:20;;;;;;;72.50;29.58;;;5.80;99.90;;;;;;5004799;28;20092;-73
2021/11/09 07:54:49;;;;;;;77.32;32.50;;;5.80;99.90;;;;;;5025174;28;20542;-73
2021/11/09 07:57:17;;;;;;;84.88;30.70;;;5.90;99.90;;;;;;5030223;28;20038;-73
2021/11/09 07:59:53;;;;;;;76.78;31.65;;;6.00;99.90;;;;;;5026686;28;20072;-73
2021/11/09 08:04:59;;;;;;;71.63;28.00;;;6.10;99.90;;;;;;5023918;28;20053;-73
2021/11/09 08:07:36;;;;;;;73.28;26.35;;;6.10;99.90;;;;;;4990828;28;20119;-73
2021/11/09 08:10:05;;;;;;;62.40;27.13;;;6.10;99.90;;;;;;5023023;28;20122;-73
2021/11/09 08:12:31;;;;;;;63.17;24.58;;;6.10;99.90;;;;;;5025162;28;20068;-73
2021/11/09 08:14:58;;;;;;;59.53;25.05;;;6.20;99.90;;;;;;5024980;28;20061;-75
2021/11/09 08:17:25;;;;;;;75.97;26.80;;;6.20;99.90;;;;;;4991765;28;20054;-75
2021/11/09 08:19:51;;;;;;;62.28;26.67;;;6.20;99.90;;;;;;5027029;28;20115;-75
2021/11/09 08:22:18;;;;;;;58.40;24.33;;;6.20;99.90;;;;;;5025639;28;20049;-75
2021/11/09 08:24:45;;;;;;;57.42;22.95;;;6.30;99.90;;;;;;5008452;28;20314;-73
2021/11/09 08:27:12;;;;;;;55.97;23.17;;;6.30;99.90;;;;;;5006632;28;20050;-73
2021/11/09 08:29:41;;;;;;;62.05;22.13;;;6.40;99.90;;;;;;5019259;28;20471;-74
2021/11/09 08:32:10;;;;;;;58.20;22.55;;;6.50;99.90;;;;;;5008196;28;20100;-74
2021/11/09 08:34:37;;;;;;;45.15;22.02;;;6.50;99.90;;;;;;5008914;28;20041;-72
2021/11/09 08:37:05;;;;;;;45.22;22.02;;;6.70;99.90;;;;;;5024134;28;20049;-70
2021/11/09 08:39:40;;;;;;;49.83;20.10;;;6.90;99.90;;;;;;5045171;28;20056;-71
2021/11/09 08:42:13;;;;;;;39.17;18.33;;;7.20;99.90;;;;;;5021667;28;20045;-72
2021/11/09 08:44:49;;;;;;;33.95;17.00;;;7.60;99.90;;;;;;5008315;28;20444;-71
2021/11/09 08:47:21;;;;;;;35.05;14.75;;;8.00;99.90;;;;;;5008457;28;20057;-71
2021/11/09 08:49:50;;;;;;;30.98;16.55;;;8.30;99.90;;;;;;5026155;28;20050;-72
2021/11/09 08:52:21;;;;;;;30.33;16.13;;;8.60;99.90;;;;;;5004843;28;20623;-72
2021/11/09 08:54:53;;;;;;;31.58;17.75;;;8.90;99.90;;;;;;5002937;28;20045;-71
2021/11/09 09:05:37;;;;;;;24.25;15.88;;;9.70;99.90;;;;;;5020053;28;20045;-72
2021/11/09 09:08:04;;;;;;;25.52;15.55;;;9.80;99.90;;;;;;5024896;28;20041;-71
2021/11/09 09:10:31;;;;;;;32.20;15.85;;;9.90;99.90;;;;;;5021931;28;20092;-71
2021/11/09 09:12:58;;;;;;;36.72;17.80;;;10.00;99.90;;;;;;5030407;28;20119;-71
2021/11/09 09:15:25;;;;;;;32.08;15.70;;;10.20;99.90;;;;;;5006349;28;20107;-71
2021/11/09 09:17:52;;;;;;;21.15;14.70;;;10.40;99.90;;;;;;5025184;28;20324;-72
2021/11/09 09:20:37;;;;;;;19.20;12.82;;;10.40;99.90;;;;;;5024420;28;20134;-72
2021/11/09 09:23:13;;;;;;;21.67;12.43;;;10.40;99.90;;;;;;5022260;28;20388;-71
2021/11/09 09:33:44;;;;;;;15.80;13.98;;;10.60;99.90;;;;;;5025102;28;20053;-72
2021/11/09 09:53:03;;;;;;;;;;;11.30;99.90;;;;;;5025840;28;20288;-71
2021/11/09 09:55:39;;;;;;;;;;;11.20;99.90;;;;;;5024974;28;20186;-72
2021/11/09 09:58:11;;;;;;;14.45;10.45;;;11.40;99.90;;;;;;5024728;28;19925;-71
2021/11/09 10:00:40;;;;;;;10.93;10.05;;;11.50;99.90;;;;;;5017968;28;20059;-72
2021/11/09 10:03:08;;;;;;;11.07;9.88;;;11.60;99.90;;;;;;5012520;28;20054;-71
2021/11/09 10:05:38;;;;;;;11.50;9.88;;;11.80;99.90;;;;;;5005243;28;20061;-72
2021/11/09 10:08:22;;;;;;;12.50;9.60;;;11.80;99.90;;;;;;5016398;28;20540;-72
2021/11/09 10:10:49;;;;;;;12.75;10.30;;;11.90;99.90;;;;;;5024184;28;20049;-71
2021/11/09 10:13:23;;;;;;;10.63;9.70;;;12.00;99.90;;;;;;5023598;28;20119;-72
2021/11/09 10:15:54;;;;;;;10.43;9.73;;;12.00;99.90;;;;;;5004865;28;20340;-72
2021/11/09 10:18:24;;;;;;;12.27;11.10;;;12.10;99.90;;;;;;5023806;28;20060;-72
2021/11/09 10:20:57;;;;;;;13.35;12.00;;;12.00;99.90;;;;;;5023483;28;20057;-72
2021/11/09 10:23:29;;;;;;;11.40;10.50;;;11.90;99.90;;;;;;5024011;28;20057;-72
2021/11/09 10:26:07;;;;;;;11.45;10.75;;;12.00;99.90;;;;;;5024524;28;20515;-72
2021/11/09 10:28:34;;;;;;;11.90;10.93;;;11.80;99.90;;;;;;5022435;28;20057;-72
2021/11/09 10:31:04;;;;;;;11.63;10.63;;;12.00;99.90;;;;;;5022779;28;20115;-72
2021/11/09 10:33:50;;;;;;;12.83;11.40;;;12.00;99.90;;;;;;5004324;28;20480;-72
2021/11/09 10:36:19;;;;;;;15.55;11.43;;;11.90;99.90;;;;;;5023516;28;20713;-72
2021/11/09 10:38:48;;;;;;;12.32;11.05;;;12.00;99.90;;;;;;5021132;28;20561;-72
2021/11/09 10:41:16;;;;;;;11.10;10.40;;;12.20;99.90;;;;;;5021024;28;20297;-71
2021/11/09 10:43:44;;;;;;;11.63;10.52;;;12.30;99.90;;;;;;5000509;28;20061;-72
2021/11/09 10:46:26;;;;;;;12.40;11.40;;;12.00;99.90;;;;;;4988113;28;20080;-72
2021/11/09 10:48:53;;;;;;;12.20;11.07;;;12.00;99.90;;;;;;5026067;28;20045;-72
2021/11/09 10:51:20;;;;;;;11.52;10.82;;;12.10;99.90;;;;;;5023452;28;20148;-71
2021/11/09 10:53:52;;;;;;;10.80;10.25;;;12.00;99.90;;;;;;5006853;28;20111;-72
2021/11/09 10:56:55;;;;;;;12.10;11.00;;;11.90;99.90;;;;;;5026527;28;20057;-71
2021/11/09 10:59:49;;;;;;;11.05;10.45;;;11.90;99.90;;;;;;5022973;28;20049;-72
2021/11/09 11:05:20;;;;;;;10.52;9.98;;;11.90;99.90;;;;;;5022085;28;20053;-72
2021/11/09 11:07:55;;;;;;;11.05;10.25;;;11.70;99.90;;;;;;5007311;28;20057;-71
2021/11/09 11:10:32;;;;;;;11.52;10.45;;;11.50;99.90;;;;;;5022241;28;20058;-72
2021/11/09 11:13:22;;;;;;;13.07;11.55;;;11.50;99.90;;;;;;5025960;28;20415;-72
2021/11/09 11:16:10;;;;;;;12.40;11.38;;;11.60;99.90;;;;;;5024506;28;20079;-72
2021/11/09 11:18:43;;;;;;;13.13;12.05;;;11.70;99.90;;;;;;5025811;28;20674;-72
2021/11/09 11:21:13;;;;;;;12.18;11.20;;;11.80;99.90;;;;;;5025238;28;20048;-72
2021/11/09 11:23:42;;;;;;;12.13;10.93;;;11.80;99.90;;;;;;5006490;28;20523;-72
2021/11/09 11:26:09;;;;;;;11.95;11.10;;;11.90;99.90;;;;;;5005937;28;20042;-72
2021/11/09 11:28:41;;;;;;;14.95;12.15;;;11.80;99.90;;;;;;5023775;28;20110;-72
2021/11/09 11:31:10;;;;;;;14.93;12.05;;;12.00;99.90;;;;;;5027285;28;20515;-72
2021/11/09 11:33:37;;;;;;;12.75;11.55;;;12.10;99.90;;;;;;5009555;28;20195;-72
2021/11/09 11:36:04;;;;;;;14.50;12.65;;;12.00;99.90;;;;;;5025477;28;20053;-71
2021/11/09 11:38:33;;;;;;;13.68;12.35;;;12.00;99.90;;;;;;5027911;28;20511;-72
2021/11/09 11:41:03;;;;;;;14.45;13.23;;;11.90;99.90;;;;;;5023706;28;20053;-71
2021/11/09 11:43:41;;;;;;;15.05;13.68;;;11.80;99.90;;;;;;5027935;28;20111;-72
2021/11/09 11:46:14;;;;;;;14.70;12.20;;;11.70;99.90;;;;;;4991989;28;20060;-71
2021/11/09 11:49:15;;;;;;;15.73;14.10;;;11.50;99.90;;;;;;5027083;28;20444;-72
2021/11/09 11:51:45;;;;;;;15.38;13.98;;;11.60;99.90;;;;;;5009177;28;20129;-72
2021/11/09 11:54:16;;;;;;;15.80;13.20;;;11.70;99.90;;;;;;5026537;28;20126;-72
2021/11/09 11:56:45;;;;;;;15.07;13.73;;;11.90;99.90;;;;;;5027967;28;20532;-72
2021/11/09 11:59:21;;;;;;;14.70;13.48;;;11.90;99.90;;;;;;5028815;28;20045;-72
2021/11/09 12:01:50;;;;;;;14.18;13.10;;;11.80;99.90;;;;;;5008679;28;20272;-73
2021/11/09 12:04:35;;;;;;;14.25;13.00;;;11.90;99.90;;;;;;5027149;28;20051;-72
2021/11/09 12:07:04;;;;;;;17.73;16.00;;;11.90;99.90;;;;;;5026214;28;20041;-73
2021/11/09 12:09:37;;;;;;;14.73;13.45;;;12.00;99.90;;;;;;5026968;28;20052;-73
2021/11/09 12:12:19;;;;;;;14.60;13.52;;;12.10;99.90;;;;;;5025889;28;20412;-72
2021/11/09 12:14:55;;;;;;;13.63;12.13;;;12.10;99.90;;;;;;5026436;28;20054;-72
2021/11/09 12:17:43;;;;;;;13.32;12.15;;;11.90;99.90;;;;;;5026322;28;20060;-72
2021/11/09 12:20:17;;;;;;;24.17;16.40;;;12.00;99.90;;;;;;5025889;28;20056;-74
2021/11/09 12:22:51;;;;;;;14.63;13.30;;;12.00;99.90;;;;;;5023160;28;20292;-72
2021/11/09 12:25:33;;;;;;;12.93;11.77;;;12.10;99.90;;;;;;5024685;28;20060;-73
2021/11/09 12:28:11;;;;;;;13.18;11.82;;;12.00;99.90;;;;;;5025723;28;20092;-72
2021/11/09 12:30:47;;;;;;;13.00;11.77;;;11.90;99.90;;;;;;5026051;28;20107;-72
2021/11/09 12:33:21;;;;;;;15.93;12.95;;;12.00;99.90;;;;;;5005332;28;20127;-73
2021/11/09 12:35:57;;;;;;;13.82;12.25;;;11.80;99.90;;;;;;5006060;28;20613;-72
2021/11/09 12:38:36;;;;;;;17.48;13.43;;;11.90;99.90;;;;;;5027189;28;20050;-72
2021/11/09 12:41:17;;;;;;;12.95;11.88;;;11.90;99.90;;;;;;5026630;28;20462;-73
2021/11/09 12:44:06;;;;;;;13.80;12.00;;;12.00;99.90;;;;;;5009369;28;20057;-72
2021/11/09 12:46:39;;;;;;;16.23;11.60;;;12.00;99.90;;;;;;5026027;28;20049;-72
2021/11/09 12:49:16;;;;;;;13.85;12.43;;;11.90;99.90;;;;;;5005299;28;20046;-73
2021/11/09 12:51:46;;;;;;;14.98;12.65;;;11.80;99.90;;;;;;5021927;28;20423;-72
2021/11/09 12:54:28;;;;;;;16.20;13.60;;;11.70;99.90;;;;;;5028194;28;20382;-71
2021/11/09 12:57:01;;;;;;;13.30;12.00;;;11.60;99.90;;;;;;5026175;28;20060;-72
2021/11/09 12:59:57;;;;;;;14.15;12.68;;;11.60;99.90;;;;;;5024683;28;20080;-72
2021/11/09 13:02:27;;;;;;;13.18;11.98;;;11.50;99.90;;;;;;5023634;28;20133;-71
2021/11/09 13:05:07;;;;;;;14.88;12.50;;;11.50;99.90;;;;;;5007531;28;20084;-72
2021/11/09 13:07:37;;;;;;;12.85;11.63;;;11.50;99.90;;;;;;5025298;28;20072;-72
2021/11/09 13:10:09;;;;;;;13.07;12.00;;;11.60;99.90;;;;;;5024567;28;20148;-71
2021/11/09 13:12:38;;;;;;;14.35;13.07;;;11.60;99.90;;;;;;5007428;28;20541;-72
2021/11/09 13:15:09;;;;;;;13.15;12.13;;;11.60;99.90;;;;;;5006177;28;20053;-71
2021/11/09 13:17:46;;;;;;;;;;;11.60;99.90;;;;;;5039662;28;20103;-72
2021/11/09 13:22:59;;;;;;;15.27;13.05;;;11.60;99.90;;;;;;5007352;28;20053;-71
2021/11/09 13:25:47;;;;;;;14.73;12.63;;;11.60;99.90;;;;;;5025236;28;20042;-71
2021/11/09 13:28:26;;;;;;;13.43;12.25;;;11.50;99.90;;;;;;5005408;28;20050;-71
2021/11/09 13:30:54;;;;;;;13.90;12.60;;;11.40;99.90;;;;;;5022992;28;20049;-72
2021/11/09 13:33:24;;;;;;;15.45;12.43;;;11.30;99.90;;;;;;5025110;28;20445;-71
2021/11/09 13:35:52;;;;;;;14.38;12.13;;;11.40;99.90;;;;;;4990853;28;20160;-71
2021/11/09 13:38:23;;;;;;;13.48;12.15;;;11.40;99.90;;;;;;5024116;28;20495;-71
2021/11/09 13:41:03;;;;;;;12.48;11.68;;;11.30;99.90;;;;;;5022940;28;20047;-70
2021/11/09 13:43:35;;;;;;;15.02;12.43;;;11.20;99.90;;;;;;5025773;28;20088;-71
2021/11/09 13:46:08;;;;;;;13.10;11.90;;;11.10;99.90;;;;;;5023624;28;20068;-71
2021/11/09 13:48:39;;;;;;;13.13;12.13;;;11.00;99.90;;;;;;5024621;28;20567;-70
2021/11/09 13:51:11;;;;;;;14.15;12.80;;;10.90;99.90;;;;;;5024403;28;20527;-71
2021/11/09 13:53:46;;;;;;;12.88;11.98;;;10.90;99.90;;;;;;5024966;28;20089;-72
2021/11/09 13:56:19;;;;;;;13.10;12.02;;;10.90;99.90;;;;;;5023298;28;20057;-70
2021/11/09 13:59:14;;;;;;;13.40;12.02;;;10.80;99.90;;;;;;5021797;28;20057;-71
2021/11/09 14:01:56;;;;;;;13.82;12.52;;;10.80;99.90;;;;;;5021670;28;20065;-71
2021/11/09 14:13:35;;;;;;;18.48;14.27;;;10.80;99.90;;;;;;4947336;28;20284;-71
2021/11/09 14:18:51;;;;;;;16.92;15.07;;;10.70;99.90;;;;;;5028790;28;20136;-71
2021/11/09 14:21:34;;;;;;;15.65;13.65;;;10.70;99.90;;;;;;5022945;28;20136;-71
2021/11/09 14:24:21;;;;;;;16.80;14.10;;;10.70;99.90;;;;;;5023495;28;20053;-71
2021/11/09 14:27:11;;;;;;;18.70;16.08;;;10.70;99.90;;;;;;5005904;28;20061;-71
2021/11/09 14:29:59;;;;;;;16.15;14.45;;;10.60;99.90;;;;;;5005726;28;20420;-71
2021/11/09 14:32:33;;;;;;;17.65;13.48;;;10.70;99.90;;;;;;5023517;28;20071;-72
2021/11/09 14:35:06;;;;;;;14.20;12.00;;;10.70;99.90;;;;;;5021826;28;20049;-72
2021/11/09 14:37:43;;;;;;;17.73;12.30;;;10.70;99.90;;;;;;5023942;28;20050;-72
2021/11/09 14:40:13;;;;;;;12.60;11.52;;;10.60;99.90;;;;;;5020977;28;20045;-70
2021/11/09 14:48:16;;;;;;;14.98;11.98;;;10.50;99.90;;;;;;5023613;28;20111;-71
2021/11/09 14:50:51;;;;;;;13.40;12.02;;;10.40;99.90;;;;;;5021075;28;20065;-72
2021/11/09 14:53:32;;;;;;;12.30;11.27;;;10.50;99.90;;;;;;5006367;28;20519;-71
2021/11/09 14:56:06;;;;;;;13.20;11.82;;;10.40;99.90;;;;;;5024217;28;20049;-71
2021/11/09 14:58:38;;;;;;;15.95;11.02;;;10.30;99.90;;;;;;5036715;28;20041;-72
2021/11/09 15:01:19;;;;;;;13.55;12.27;;;10.30;99.90;;;;;;5004606;28;20488;-72
2021/11/09 15:03:56;;;;;;;14.52;11.25;;;10.30;99.90;;;;;;5007398;28;20049;-72
2021/11/09 15:28:20;;;;;;;12.75;10.45;;;9.80;99.90;;;;;;5027161;28;20057;-71
2021/11/09 15:31:01;;;;;;;11.98;9.75;;;9.80;99.90;;;;;;5021292;28;20392;-72
2021/11/09 15:38:32;;;;;;;10.70;9.80;;;9.60;99.90;;;;;;5026686;28;20076;-70
2021/11/09 15:40:59;;;;;;;10.75;9.80;;;9.60;99.90;;;;;;5010290;28;20140;-72
2021/11/09 15:43:26;;;;;;;13.10;9.90;;;9.50;99.90;;;;;;5024964;28;20122;-71
2021/11/09 15:45:54;;;;;;;10.85;9.85;;;9.40;99.90;;;;;;5026441;28;20052;-71
2021/11/09 15:48:21;;;;;;;12.27;10.10;;;9.30;99.90;;;;;;5008786;28;20181;-72
2021/11/09 15:50:48;;;;;;;10.70;9.52;;;9.30;99.90;;;;;;5008065;28;20061;-72
2021/11/09 15:53:15;;;;;;;14.50;9.90;;;9.30;99.90;;;;;;5026714;28;20060;-71
2021/11/09 15:55:42;;;;;;;10.98;9.82;;;9.10;99.90;;;;;;5014160;28;20054;-71
2021/11/09 15:58:09;;;;;;;15.32;9.80;;;9.10;99.90;;;;;;5018350;28;20297;-71